메인 페이지
METAR-TAF:

METAR-TAF

공항 :

하이파, 이스라엘

위도: 32-48N, 경도: 035-02E, 고도: 8m

현재 날씨관측

예보는 26분 전, 04:50시(UTC)에 발표되었습니다.
여러 방향의 바람 2kt
온도 26°C
습도 79%
기압 1006 hPa
시정: 9000m
고도 1800ft 상공 구름 조금

METAR: LLHA 040450Z VRB02KT 9000 FEW018 26/22 Q1006

시각: 08:16 (05:16 UTC)

예보

예보는 6 시간 3분 전, 23:13시(UTC)에 발표되었습니다.
예보 대상 시간: 04일 00시부터 04일 24시까지 (UTC)
여러 방향의 바람 4kt
시정: 7000m
고도 1300ft 상공 구름 보통
일시적
04일 00시부터 04일 05시까지 (UTC)
서남서5kt
고도 1200ft 상공 구름 많음
전환 중
04일 07시부터 04일 09시까지 (UTC)
10kt
시정 10km 이상
고도 2000ft 상공 구름 조금
전환 중
04일 18시부터 04일 20시까지 (UTC)
서남서5kt
고도 1800ft 상공 구름 보통

TAF: LLHA 032313Z 0400/0424 VRB04KT 7000 SCT013 TEMPO 0400/0405 24005KT BKN012 BECMG 0407/0409 27010KT 9999 FEW020 BECMG 0418/0420 24005KT SCT018 TX28/0412Z TN23/0403Z

4,000개 이상의 공항 관측 자료 및 예보 (METAR 및 TAF 보고).

지도상에서 검색 가능한 기상관측소가 노란 점과 빨간 점으로 표시되어 있습니다.

기상관측소 명을 보려면 표시 위로 마우스를 이동하세요.

날씨 관측과 예보를 보려면 클릭하세요.

지도 변경 : 확대하려면 엑스 표시가 있는 녹색 버튼, 축소하려면 빼기 표시가 있는 녹색 버튼, 다음 페이지의 지도를 보려면 녹색 화살표를 클릭하세요.


METAR-TAF: